Terminal Aerodrome Forecast
Issued by NWS Sterling, VA

Home | Current Version | Previous Version | Text Only | Print | Product List | Glossary On
Versions: 1 2 3 4 5 6 7 8 9 10 11 12 13 14 15 16 17 18
000
FTUS41 KLWX 172106 AAB
TAFMRB
TAF AMD
KMRB 172106Z 1721/1818 16006KT 1 1/2SM BR BKN008
      TEMPO 1721/1724 3/4SM BR BKN004
     FM180000 19005KT 1/2SM FG BKN003
     FM180400 25005KT 1/2SM FG BKN015
     FM180600 27005KT 1 1/2SM BR BKN010
     FM180900 29005KT 4SM BR BKN035
     FM181200 29006KT P6SM BKN030
     FM181500 29010KT P6SM BKN030=

USA.gov is the U.S. government's official web portal to all federal, state and local government web resources and services.